Time;durP1;ratioP1;P1;durP2;ratioP2;P2;SDS_P1;SDS_P2;PMS_P1;PMS_P2;Temp;Humidity;BMP_temperature;BMP_pressure;BME280_temperature;BME280_humidity;BME280_pressure;Samples;Min_cycle;Max_cycle;Signal;HPM_P1;HPM_P2
2022/04/11 00:00:44;;;;;;;9.85;3.00;;;;;;;-144.47;65.14;53503.63;5012622;28;20048;-70
2022/04/11 00:03:10;;;;;;;9.35;2.67;;;;;;;-144.47;64.82;53511.59;5012034;28;20614;-74
2022/04/11 00:05:35;;;;;;;9.23;2.60;;;;;;;-144.47;64.62;53527.47;5014401;28;20435;-73
2022/04/11 00:08:00;;;;;;;7.05;2.30;;;;;;;-144.47;64.62;53531.44;5011103;28;20037;-74
2022/04/11 00:10:26;;;;;;;5.38;2.15;;;;;;;-144.47;64.37;53513.56;5013440;28;20026;-73
2022/04/11 00:12:51;;;;;;;5.63;2.03;;;;;;;-144.47;64.61;53489.72;5013321;28;20054;-73
2022/04/11 00:15:16;;;;;;;4.72;2.10;;;;;;;-144.47;64.51;53533.44;5014673;28;20420;-75
2022/04/11 00:17:41;;;;;;;8.85;2.30;;;;;;;-144.47;64.30;53493.72;5011303;28;20072;-74
2022/04/11 00:20:07;;;;;;;4.28;2.10;;;;;;;-144.47;64.35;53527.47;5013783;28;20052;-70
2022/04/11 00:22:34;;;;;;;8.88;1.80;;;;;;;-144.47;64.21;53533.44;5010731;28;20017;-70
2022/04/11 00:24:59;;;;;;;7.03;2.03;;;;;;;-144.47;64.28;53499.66;5008728;28;20645;-73
2022/04/11 00:27:25;;;;;;;5.03;2.47;;;;;;;-144.47;64.15;53543.38;5008751;28;20499;-71
2022/04/11 00:29:50;;;;;;;5.47;2.00;;;;;;;-144.47;64.66;53551.31;5008143;28;20044;-72
2022/04/11 00:32:15;;;;;;;6.43;1.83;;;;;;;-144.47;64.72;53519.53;5008535;28;20528;-73
2022/04/11 00:34:41;;;;;;;5.20;2.17;;;;;;;-144.47;64.65;53555.28;4999795;28;20022;-76
2022/04/11 00:37:06;;;;;;;4.18;1.88;;;;;;;-144.47;64.99;53557.28;5008486;28;20017;-73
2022/04/11 00:39:31;;;;;;;9.30;4.13;;;;;;;-144.47;65.22;53529.47;5007619;28;20557;-73
2022/04/11 00:41:56;;;;;;;4.95;2.50;;;;;;;-144.47;65.23;53531.44;5008331;28;20034;-71
2022/04/11 00:44:22;;;;;;;7.32;2.35;;;;;;;-144.47;65.13;53503.63;5012092;28;20034;-70
2022/04/11 00:46:47;;;;;;;6.88;1.98;;;;;;;-144.47;64.97;53519.53;5012744;28;20057;-73
2022/04/11 00:49:12;;;;;;;5.70;2.10;;;;;;;-144.47;64.84;53539.41;5013864;28;20089;-71
2022/04/11 00:51:39;;;;;;;6.68;2.30;;;;;;;-144.47;64.61;53519.53;5009727;28;20037;-70
2022/04/11 00:54:04;;;;;;;9.75;2.58;;;;;;;-144.47;64.68;53549.34;5011110;28;20042;-70
2022/04/11 00:56:30;;;;;;;8.65;3.00;;;;;;;-144.47;64.70;53515.56;5015163;28;20078;-72
2022/04/11 00:59:00;;;;;;;10.65;3.25;;;;;;;-144.47;64.72;53521.50;5015531;28;20063;-73
2022/04/11 01:01:25;;;;;;;10.95;3.58;;;;;;;-144.47;64.87;53507.59;5013317;28;20025;-73
2022/04/11 01:03:51;;;;;;;17.73;4.97;;;;;;;-144.47;64.76;53537.41;5015142;28;20034;-73
2022/04/11 01:06:16;;;;;;;13.77;4.03;;;;;;;-144.47;64.66;53535.41;5014662;28;20049;-71
2022/04/11 01:08:41;;;;;;;9.38;3.85;;;;;;;-144.47;64.54;53523.50;5013099;28;20042;-74
2022/04/11 01:11:07;;;;;;;8.27;2.63;;;;;;;-144.47;65.02;53545.34;5012835;28;20054;-70
2022/04/11 01:13:32;;;;;;;6.95;2.63;;;;;;;-144.47;65.24;53541.38;5013064;28;20045;-75
2022/04/11 01:16:04;;;;;;;7.13;2.28;;;;;;;-144.47;65.33;53497.69;5015701;28;20067;-71
2022/04/11 01:18:36;;;;;;;7.40;2.25;;;;;;;-144.47;65.50;53499.66;5009050;28;20042;-75
2022/04/11 01:21:03;;;;;;;10.20;3.08;;;;;;;-144.47;65.79;53553.31;5016459;28;20520;-75
2022/04/11 01:23:28;;;;;;;5.35;2.03;;;;;;;-144.47;65.83;53559.25;5013637;28;20400;-75
2022/04/11 01:25:54;;;;;;;5.40;2.15;;;;;;;-144.47;66.11;53533.44;5008231;28;20117;-70
2022/04/11 01:28:21;;;;;;;7.93;2.72;;;;;;;-144.47;66.10;53535.41;5013821;28;20022;-74
2022/04/11 01:30:50;;;;;;;7.03;2.30;;;;;;;-144.47;66.68;53527.47;5000557;28;20415;-76
2022/04/11 01:33:17;;;;;;;5.28;2.47;;;;;;;-144.47;66.78;53583.09;5013174;28;20067;-75
2022/04/11 01:35:43;;;;;;;7.10;2.60;;;;;;;-144.47;66.75;53533.44;5011361;28;20129;-73
2022/04/11 01:38:08;;;;;;;7.53;2.58;;;;;;;-144.47;66.76;53567.22;5010577;28;20026;-72
2022/04/11 01:40:34;;;;;;;4.43;2.42;;;;;;;-144.47;67.20;53535.41;5010462;28;20511;-71
2022/04/11 01:42:59;;;;;;;10.00;2.85;;;;;;;-144.47;67.37;53559.25;5011076;28;20141;-74
2022/04/11 01:45:24;;;;;;;6.18;2.60;;;;;;;-144.47;67.47;53543.38;4994970;28;20065;-74
2022/04/11 01:47:50;;;;;;;6.78;2.75;;;;;;;-144.47;67.36;53533.44;5057172;22;20079;-65
2022/04/11 01:50:15;;;;;;;7.22;2.88;;;;;;;-144.47;67.53;53561.25;5049522;28;20033;-67
2022/04/11 01:52:40;;;;;;;7.43;2.80;;;;;;;-144.47;67.52;53561.25;5051139;28;20059;-67
2022/04/11 01:55:06;;;;;;;7.53;2.40;;;;;;;-144.47;67.78;53507.59;5049951;28;20498;-67
2022/04/11 01:57:31;;;;;;;6.20;2.55;;;;;;;-144.47;67.68;53547.34;5054187;28;20164;-65
2022/04/11 01:59:57;;;;;;;6.28;3.08;;;;;;;-144.47;67.68;53553.31;5053958;28;20041;-67
2022/04/11 02:02:22;;;;;;;7.00;2.78;;;;;;;-144.47;67.48;53549.34;5052242;28;20114;-66
2022/04/11 02:04:48;;;;;;;6.93;2.60;;;;;;;-144.47;67.27;53515.56;5051735;28;20051;-63
2022/04/11 02:07:13;;;;;;;6.82;2.55;;;;;;;-144.47;67.36;53527.47;5053066;28;20488;-64
2022/04/11 02:09:38;;;;;;;7.47;3.03;;;;;;;-144.47;67.05;53529.47;5051703;28;20147;-67
2022/04/11 02:12:04;;;;;;;7.95;2.60;;;;;;;-144.47;67.31;53553.31;5053052;28;20053;-66
2022/04/11 02:14:29;;;;;;;7.13;2.85;;;;;;;-144.47;67.38;53499.66;5050828;28;20021;-63
2022/04/11 02:16:55;;;;;;;6.63;3.00;;;;;;;-144.47;67.41;53543.38;5051028;28;20491;-65
2022/04/11 02:19:20;;;;;;;6.05;2.70;;;;;;;-144.47;67.50;53549.34;5051838;28;20107;-66
2022/04/11 02:21:45;;;;;;;9.80;3.15;;;;;;;-144.47;67.69;53551.31;5052591;28;20075;-65
2022/04/11 02:24:10;;;;;;;7.80;2.65;;;;;;;-144.47;67.93;53563.22;5049504;28;20038;-67
2022/04/11 02:26:36;;;;;;;8.25;3.28;;;;;;;-144.47;68.22;53483.78;5052575;28;20532;-65
2022/04/11 02:29:01;;;;;;;8.77;2.67;;;;;;;-144.47;68.03;53547.34;5052985;28;20111;-66
2022/04/11 02:31:26;;;;;;;6.90;3.20;;;;;;;-144.47;68.30;53525.50;5054291;28;20017;-63
2022/04/11 02:33:51;;;;;;;12.07;3.58;;;;;;;-144.47;68.27;53507.59;5052681;28;20051;-67
2022/04/11 02:36:17;;;;;;;13.60;3.33;;;;;;;-144.47;68.44;53551.31;5052712;28;20040;-65
2022/04/11 02:38:42;;;;;;;8.10;3.20;;;;;;;-144.47;68.07;53539.41;5050491;28;20363;-66
2022/04/11 02:41:07;;;;;;;8.43;2.78;;;;;;;-144.47;68.03;53515.56;5050983;28;20040;-65
2022/04/11 02:43:32;;;;;;;6.22;2.85;;;;;;;-144.47;68.05;53547.34;5049784;28;20031;-66
2022/04/11 02:45:58;;;;;;;6.47;3.13;;;;;;;-144.47;67.94;53551.31;5054771;28;20054;-65
2022/04/11 02:48:23;;;;;;;6.75;3.22;;;;;;;-144.47;67.88;53539.41;5049482;28;20410;-66
2022/04/11 02:50:48;;;;;;;11.98;3.58;;;;;;;-144.47;67.78;53581.13;5052861;28;20056;-65
2022/04/11 02:53:13;;;;;;;12.40;3.00;;;;;;;-144.47;68.04;53571.19;5051700;28;20116;-66
2022/04/11 02:55:39;;;;;;;8.40;2.67;;;;;;;-144.47;67.95;53545.34;5054654;28;20386;-65
2022/04/11 02:58:04;;;;;;;8.73;3.10;;;;;;;-144.47;68.22;53561.25;5050711;28;20009;-67
2022/04/11 03:00:29;;;;;;;8.18;3.17;;;;;;;-144.47;68.33;53573.16;5052005;28;20036;-65
2022/04/11 03:02:55;;;;;;;9.48;3.10;;;;;;;-144.47;68.39;53557.28;5054436;28;20048;-65
2022/04/11 03:05:20;;;;;;;8.80;3.10;;;;;;;-144.47;68.24;53547.34;5054310;28;20405;-66
2022/04/11 03:07:46;;;;;;;5.65;2.75;;;;;;;-144.47;68.70;53565.22;5053958;28;20037;-65
2022/04/11 03:10:11;;;;;;;13.27;5.85;;;;;;;-144.47;68.72;53555.28;5051362;28;20027;-66
2022/04/11 03:12:36;;;;;;;22.83;8.25;;;;;;;-144.47;68.90;53539.41;5051632;28;20067;-64
2022/04/11 03:15:02;;;;;;;25.58;9.50;;;;;;;-144.47;68.90;53551.31;5048739;28;20522;-66
2022/04/11 03:17:28;;;;;;;45.08;19.67;;;;;;;-144.47;69.25;53559.25;5052059;28;20032;-65
2022/04/11 03:19:53;;;;;;;56.13;22.60;;;;;;;-144.47;69.49;53511.59;5051855;28;20557;-67
2022/04/11 03:22:18;;;;;;;60.38;26.63;;;;;;;-144.47;69.43;53533.44;5052535;28;20028;-67
2022/04/11 03:24:44;;;;;;;73.22;31.58;;;;;;;-144.47;69.27;53543.38;5048008;28;20024;-62
2022/04/11 03:27:09;;;;;;;30.15;15.60;;;;;;;-144.47;69.41;53547.34;5051185;28;20033;-65
2022/04/11 03:29:34;;;;;;;18.45;9.07;;;;;;;-144.47;69.00;53535.41;5051748;28;20049;-65
2022/04/11 03:32:00;;;;;;;15.18;6.07;;;;;;;-144.47;69.09;53583.09;5052212;28;20051;-64
2022/04/11 03:34:25;;;;;;;9.20;4.68;;;;;;;-144.47;69.27;53575.16;5052089;28;20024;-64
2022/04/11 03:36:53;;;;;;;10.77;4.03;;;;;;;-144.47;69.45;53535.41;5052171;28;20037;-65
2022/04/11 03:39:19;;;;;;;10.60;5.40;;;;;;;-144.47;69.44;53551.31;5050851;28;20044;-65
2022/04/11 03:41:44;;;;;;;10.02;4.90;;;;;;;-144.47;69.57;53557.28;5052057;28;20036;-65
2022/04/11 03:44:10;;;;;;;10.52;4.43;;;;;;;-144.47;69.57;53600.97;5051529;28;20037;-65
2022/04/11 03:46:36;;;;;;;12.55;5.15;;;;;;;-144.47;69.65;53549.34;5048746;28;20052;-64
2022/04/11 03:49:02;;;;;;;13.60;6.30;;;;;;;-144.47;69.65;53555.28;5052287;28;20089;-65
2022/04/11 03:51:27;;;;;;;15.20;4.88;;;;;;;-144.47;69.69;53551.31;5050030;28;20040;-64
2022/04/11 03:53:53;;;;;;;11.07;5.03;;;;;;;-144.47;69.92;53561.25;5048905;28;20029;-65
2022/04/11 03:56:18;;;;;;;8.75;4.20;;;;;;;-144.47;69.96;53569.19;5049824;28;20041;-64
2022/04/11 03:58:44;;;;;;;9.98;3.95;;;;;;;-144.47;69.64;53545.34;5047291;28;20026;-64
2022/04/11 04:01:10;;;;;;;8.93;3.55;;;;;;;-144.47;69.76;53551.31;5051218;28;20056;-65
2022/04/11 04:03:35;;;;;;;11.40;3.80;;;;;;;-144.47;69.52;53545.34;5051343;28;20060;-65
2022/04/11 04:06:01;;;;;;;9.40;3.78;;;;;;;-144.47;69.39;53539.41;5051236;28;20510;-64
2022/04/11 04:08:26;;;;;;;8.77;3.50;;;;;;;-144.47;69.42;53563.22;5047473;28;20032;-65
2022/04/11 04:10:52;;;;;;;11.93;3.42;;;;;;;-144.47;69.30;53535.41;5046502;28;20068;-67
2022/04/11 04:13:17;;;;;;;10.43;3.78;;;;;;;-144.47;69.27;53591.03;5049371;28;20432;-65
2022/04/11 04:15:43;;;;;;;8.88;4.10;;;;;;;-144.47;69.65;53587.06;5050434;28;20065;-65
2022/04/11 04:18:10;;;;;;;8.15;3.63;;;;;;;-144.47;69.43;53583.09;5048518;28;20053;-65
2022/04/11 04:20:36;;;;;;;9.48;3.65;;;;;;;-144.47;69.51;53555.28;5049462;28;20062;-67
2022/04/11 04:23:01;;;;;;;11.43;4.40;;;;;;;-144.47;69.39;53553.31;5048486;28;20103;-66
2022/04/11 04:25:26;;;;;;;9.57;4.60;;;;;;;-144.47;69.77;53497.69;5046332;28;20041;-64
2022/04/11 04:27:52;;;;;;;14.80;4.65;;;;;;;-144.47;69.57;53551.31;5048193;28;20044;-63
2022/04/11 04:30:17;;;;;;;9.70;4.43;;;;;;;-144.47;69.79;53547.34;5049897;28;20040;-64
2022/04/11 04:32:43;;;;;;;14.20;5.40;;;;;;;-144.47;69.72;53559.25;5048993;28;20480;-66
2022/04/11 04:35:09;;;;;;;13.77;4.60;;;;;;;-144.47;69.77;53547.34;5046873;28;20040;-66
2022/04/11 04:37:34;;;;;;;13.32;5.07;;;;;;;-144.47;69.70;53593.03;5048337;28;20056;-67
2022/04/11 04:40:00;;;;;;;12.90;4.90;;;;;;;-144.47;69.68;53529.47;5050591;28;20567;-66
2022/04/11 04:42:28;;;;;;;8.75;4.65;;;;;;;-144.47;69.50;53561.25;5050737;28;20033;-65
2022/04/11 04:44:54;;;;;;;15.65;4.70;;;;;;;-144.47;69.84;53551.31;5051476;28;20033;-64
2022/04/11 04:47:20;;;;;;;10.38;5.13;;;;;;;-144.47;69.93;53555.28;5050630;28;20029;-65
2022/04/11 04:49:46;;;;;;;11.48;4.55;;;;;;;-144.47;69.74;53527.47;5049541;28;20043;-65
2022/04/11 04:52:12;;;;;;;20.02;6.90;;;;;;;-144.47;69.81;53541.38;5050355;28;20382;-64
2022/04/11 04:54:37;;;;;;;20.63;4.57;;;;;;;-144.47;69.79;53537.41;5049375;28;20037;-66
2022/04/11 04:57:04;;;;;;;10.35;4.53;;;;;;;-144.47;70.09;53505.63;5050117;28;20033;-66
2022/04/11 04:59:30;;;;;;;15.65;4.63;;;;;;;-144.47;69.92;53571.19;5049242;28;20095;-67
2022/04/11 05:01:55;;;;;;;13.50;5.25;;;;;;;-144.47;69.57;53567.22;5049721;28;20029;-68
2022/04/11 05:04:21;;;;;;;12.45;5.32;;;;;;;-144.47;69.76;53519.53;5047400;28;20112;-69
2022/04/11 05:06:46;;;;;;;16.98;6.97;;;;;;;-144.47;69.71;53575.16;5048428;28;20406;-67
2022/04/11 05:09:11;;;;;;;25.48;6.18;;;;;;;-144.47;69.79;53573.16;5050301;28;20187;-69
2022/04/11 05:11:37;;;;;;;11.75;5.20;;;;;;;-144.47;69.79;53543.38;5048245;28;20040;-68
2022/04/11 05:14:02;;;;;;;13.27;4.95;;;;;;;-144.47;69.46;53579.13;5047525;28;20032;-69
2022/04/11 05:16:27;;;;;;;10.50;4.85;;;;;;;-144.47;69.71;53593.03;5048566;28;20017;-71
2022/04/11 05:18:53;;;;;;;11.90;4.93;;;;;;;-144.47;69.77;53549.34;5047990;28;20061;-66
2022/04/11 05:21:18;;;;;;;11.27;5.50;;;;;;;-144.47;69.48;53563.22;5048400;28;20056;-65
2022/04/11 05:23:43;;;;;;;9.98;4.57;;;;;;;-144.47;68.86;53539.41;5047857;28;20064;-68
2022/04/11 05:26:08;;;;;;;10.45;5.10;;;;;;;-144.47;68.89;53503.63;5043702;28;20032;-66
2022/04/11 05:28:34;;;;;;;13.23;5.35;;;;;;;-144.47;68.97;53499.66;5049231;28;20017;-66
2022/04/11 05:31:00;;;;;;;13.60;5.60;;;;;;;-144.47;68.66;53521.50;5049546;28;20021;-65
2022/04/11 05:33:26;;;;;;;10.23;5.18;;;;;;;-144.47;68.48;53531.44;5048339;28;20522;-68
2022/04/11 05:35:52;;;;;;;9.07;4.72;;;;;;;-144.47;68.35;53547.34;5046905;28;20052;-66
2022/04/11 05:38:19;;;;;;;14.70;5.82;;;;;;;-144.47;68.40;53571.19;5047749;28;20083;-67
2022/04/11 05:40:44;;;;;;;13.98;5.90;;;;;;;-144.47;68.42;53573.16;5049400;28;20049;-67
2022/04/11 05:43:10;;;;;;;18.58;5.82;;;;;;;-144.47;68.35;53579.13;5048438;28;20122;-64
2022/04/11 05:45:35;;;;;;;10.85;5.35;;;;;;;-144.47;67.80;53555.28;5049538;28;20028;-67
2022/04/11 05:48:00;;;;;;;17.42;6.20;;;;;;;-144.47;68.15;53589.06;5051732;28;20041;-66
2022/04/11 05:50:26;;;;;;;14.23;5.45;;;;;;;-144.47;68.08;53555.28;5053300;28;20040;-68
2022/04/11 05:52:51;;;;;;;10.98;5.75;;;;;;;-144.47;68.02;53553.31;5051790;28;20104;-66
2022/04/11 05:55:16;;;;;;;13.90;4.97;;;;;;;-144.47;68.00;53589.06;5051103;28;20027;-65
2022/04/11 05:57:43;;;;;;;9.88;4.97;;;;;;;-144.47;67.25;53523.50;5052937;28;20453;-69
2022/04/11 06:00:08;;;;;;;11.32;5.20;;;;;;;-144.47;66.71;53537.41;5052707;28;20128;-67
2022/04/11 06:02:34;;;;;;;14.70;5.03;;;;;;;-144.47;66.43;53537.41;5050960;28;20120;-66
2022/04/11 06:04:59;;;;;;;11.45;4.68;;;;;;;-144.47;66.18;53539.41;5051436;28;20059;-65
2022/04/11 06:07:26;;;;;;;19.92;6.07;;;;;;;-144.47;66.07;53567.22;5049831;28;20041;-66
2022/04/11 06:09:51;;;;;;;11.48;5.25;;;;;;;-144.47;65.82;53557.28;5052170;28;20032;-66
2022/04/11 06:12:17;;;;;;;17.50;5.72;;;;;;;-144.47;65.67;53529.47;5051984;28;20132;-67
2022/04/11 06:14:42;;;;;;;14.13;5.43;;;;;;;-144.47;65.29;53521.50;5050247;28;20056;-68
2022/04/11 06:17:08;;;;;;;27.10;5.40;;;;;;;-144.47;65.17;53513.56;5052601;28;20029;-67
2022/04/11 06:19:33;;;;;;;20.58;6.05;;;;;;;-144.47;65.15;53515.56;5052494;28;20029;-67
2022/04/11 06:21:58;;;;;;;12.52;5.05;;;;;;;-144.47;64.79;53529.47;5051842;28;20119;-66
2022/04/11 06:24:24;;;;;;;19.55;5.70;;;;;;;-144.47;64.60;53531.44;5050436;28;20563;-68
2022/04/11 06:26:49;;;;;;;18.55;5.47;;;;;;;-144.47;64.35;53519.53;5050587;28;20133;-67
2022/04/11 06:29:14;;;;;;;12.07;5.10;;;;;;;-144.47;63.89;53559.25;5050933;28;20021;-68
2022/04/11 06:31:39;;;;;;;9.27;4.70;;;;;;;-144.47;63.78;53533.44;5050706;28;20021;-67
2022/04/11 06:34:05;;;;;;;20.48;5.18;;;;;;;-144.47;63.42;53535.41;5046031;28;20025;-67
2022/04/11 06:36:30;;;;;;;16.88;4.40;;;;;;;-144.47;62.89;53541.38;5050535;28;20028;-68
2022/04/11 06:38:55;;;;;;;12.52;5.25;;;;;;;-144.47;63.00;53523.50;5052402;28;20506;-68
2022/04/11 06:41:21;;;;;;;11.85;5.03;;;;;;;-144.47;62.96;53507.59;5050253;28;20032;-67
2022/04/11 06:43:46;;;;;;;19.83;5.80;;;;;;;-144.47;62.91;53517.53;5041000;28;20120;-68
2022/04/11 06:46:11;;;;;;;13.18;5.88;;;;;;;-144.47;62.88;53513.56;5048555;28;20079;-68
2022/04/11 06:48:37;;;;;;;10.00;4.55;;;;;;;-144.47;62.76;53497.69;5048043;28;20052;-68
2022/04/11 06:51:02;;;;;;;12.82;4.45;;;;;;;-144.47;62.33;53501.66;5051352;28;20037;-66
2022/04/11 06:53:27;;;;;;;9.88;3.33;;;;;;;-144.47;60.67;53517.53;5051604;28;20108;-67
2022/04/11 06:55:53;;;;;;;7.72;3.67;;;;;;;-144.47;59.95;53527.47;5043814;28;20200;-67
2022/04/11 06:58:18;;;;;;;13.13;4.40;;;;;;;-144.47;59.59;53549.34;5044895;28;20029;-69
2022/04/11 07:00:44;;;;;;;13.70;3.95;;;;;;;-144.47;59.56;53533.44;5050753;28;20029;-68
2022/04/11 07:03:09;;;;;;;11.40;3.50;;;;;;;-144.47;59.17;53543.38;5050652;28;20041;-67
2022/04/11 07:05:35;;;;;;;8.25;3.35;;;;;;;-144.47;58.70;53535.41;5049222;28;20051;-66
2022/04/11 07:08:01;;;;;;;7.05;3.25;;;;;;;-144.47;58.46;53537.41;5050923;28;20075;-67
2022/04/11 07:10:26;;;;;;;8.38;3.60;;;;;;;-144.47;58.26;53567.22;5051326;28;20029;-65
2022/04/11 07:12:51;;;;;;;14.95;3.70;;;;;;;-144.47;57.97;53501.66;5049246;28;20124;-68
2022/04/11 07:15:17;;;;;;;10.07;3.25;;;;;;;-144.47;57.96;53503.63;5051189;28;20037;-67
2022/04/11 07:17:42;;;;;;;15.70;3.50;;;;;;;-144.47;57.44;53521.50;5051604;28;20068;-67
2022/04/11 07:20:08;;;;;;;8.40;3.20;;;;;;;-144.47;57.08;53513.56;5049617;28;20048;-67
2022/04/11 07:22:34;;;;;;;7.68;2.85;;;;;;;-144.47;57.15;53553.31;5051309;28;20445;-68
2022/04/11 07:25:01;;;;;;;8.63;3.38;;;;;;;-144.47;56.72;53493.72;5048728;28;20501;-68
2022/04/11 07:27:26;;;;;;;12.75;3.38;;;;;;;-144.47;56.89;53515.56;5051593;28;20033;-66
2022/04/11 07:29:52;;;;;;;8.85;3.00;;;;;;;-144.47;55.90;53507.59;5047158;28;20521;-68
2022/04/11 07:32:17;;;;;;;11.75;3.40;;;;;;;-144.47;55.78;53477.81;5049534;28;20028;-67
2022/04/11 07:34:42;;;;;;;11.57;3.33;;;;;;;-144.47;54.84;53515.56;5046238;28;20028;-67
2022/04/11 07:37:07;;;;;;;9.93;3.35;;;;;;;-144.47;55.37;53475.81;5051103;28;20029;-65
2022/04/11 07:39:33;;;;;;;10.35;3.03;;;;;;;-144.47;55.20;53523.50;5049918;28;20464;-71
2022/04/11 07:41:58;;;;;;;7.95;2.60;;;;;;;-144.47;54.75;53493.72;5050466;28;20048;-66
2022/04/11 07:44:23;;;;;;;11.23;3.17;;;;;;;-144.47;54.74;53467.88;5048115;28;20049;-69
2022/04/11 07:46:49;;;;;;;7.43;2.65;;;;;;;-144.47;54.30;53479.81;5050809;28;20120;-67
2022/04/11 07:49:14;;;;;;;5.97;2.53;;;;;;;-144.47;53.63;53479.81;5063774;22;20041;-68
2022/04/11 07:51:40;;;;;;;12.48;3.30;;;;;;;-144.47;54.24;53511.59;5047829;28;20037;-68
2022/04/11 07:54:05;;;;;;;13.80;2.90;;;;;;;-144.47;54.54;53471.84;5025833;28;20185;-68
2022/04/11 07:56:30;;;;;;;8.73;2.70;;;;;;;-144.47;53.66;53501.66;5042741;28;20033;-69
2022/04/11 07:58:56;;;;;;;8.45;2.70;;;;;;;-144.47;53.88;53495.69;5047202;28;20603;-69
2022/04/11 08:01:22;;;;;;;9.40;2.63;;;;;;;-144.47;54.05;53420.22;5045381;28;20017;-68
2022/04/11 08:03:48;;;;;;;9.48;3.53;;;;;;;-144.47;53.86;53467.88;5047050;28;20073;-69
2022/04/11 08:06:14;;;;;;;9.77;2.85;;;;;;;-144.47;53.33;53473.84;5044153;28;20068;-69
2022/04/11 08:08:44;;;;;;;17.80;3.25;;;;;;;-144.47;53.35;53469.88;5037252;28;20106;-69
2022/04/11 08:11:16;;;;;;;14.55;3.38;;;;;;;-144.47;53.88;53463.91;5045641;28;20479;-69
2022/04/11 08:13:42;;;;;;;7.55;3.10;;;;;;;-144.47;52.86;53487.75;5042763;28;20063;-71
2022/04/11 08:16:08;;;;;;;11.20;2.97;;;;;;;-144.47;52.76;53461.91;5046927;28;20045;-70
2022/04/11 08:18:34;;;;;;;9.68;2.20;;;;;;;-144.47;51.57;53450.00;5046478;28;20052;-68
2022/04/11 08:21:01;;;;;;;8.90;3.17;;;;;;;-144.47;51.76;53455.97;5022944;28;20106;-70
2022/04/11 08:23:27;;;;;;;9.00;2.70;;;;;;;-144.47;51.61;53455.97;5045265;28;20072;-71
2022/04/11 08:25:52;;;;;;;8.00;3.10;;;;;;;-144.47;52.20;53469.88;5048076;28;20065;-70
2022/04/11 08:28:19;;;;;;;14.23;3.25;;;;;;;-144.47;51.58;53450.00;5041004;28;20434;-71
2022/04/11 08:30:45;;;;;;;9.32;2.65;;;;;;;-144.47;51.02;53485.75;5044167;28;20033;-70
2022/04/11 08:33:11;;;;;;;8.60;3.08;;;;;;;-144.47;51.16;53463.91;5046800;28;20043;-69
2022/04/11 08:35:37;;;;;;;10.38;2.85;;;;;;;-144.47;51.03;53477.81;5041623;28;20033;-70
2022/04/11 08:38:02;;;;;;;29.85;3.10;;;;;;;-144.47;51.32;53467.88;5039399;28;20087;-71
2022/04/11 08:40:29;;;;;;;10.88;2.88;;;;;;;-144.47;49.98;53485.75;5046529;28;20025;-73
2022/04/11 08:42:54;;;;;;;12.63;3.08;;;;;;;-144.47;49.15;53461.91;5045143;28;20045;-71
2022/04/11 08:45:22;;;;;;;8.02;2.90;;;;;;;-144.47;49.65;53440.06;5044671;28;20029;-70
2022/04/11 08:47:48;;;;;;;8.43;2.63;;;;;;;-144.47;48.56;53457.94;5039682;28;20041;-70
2022/04/11 08:50:14;;;;;;;10.43;2.38;;;;;;;-144.47;48.34;53481.78;5045101;28;20033;-70
2022/04/11 08:52:40;;;;;;;8.25;2.45;;;;;;;-144.47;48.17;53471.84;5042979;28;20056;-69
2022/04/11 08:55:06;;;;;;;15.23;3.83;;;;;;;-144.47;48.74;53475.81;5040364;28;20553;-69
2022/04/11 08:57:31;;;;;;;16.70;3.15;;;;;;;-144.47;47.14;53448.00;5043630;28;20029;-72
2022/04/11 09:00:02;;;;;;;9.88;2.30;;;;;;;-144.47;45.55;53434.09;5044503;28;20507;-72
2022/04/11 09:02:33;;;;;;;5.07;1.38;;;;;;;-144.47;44.04;53467.88;5046220;28;20602;-70
2022/04/11 09:04:58;;;;;;;14.93;1.83;;;;;;;-144.47;43.76;53428.16;5025953;28;20025;-75
2022/04/11 09:07:24;;;;;;;6.00;1.45;;;;;;;-144.47;43.29;53404.31;5046504;28;20017;-72
2022/04/11 09:09:49;;;;;;;6.90;2.08;;;;;;;-144.47;42.43;53428.16;5043087;28;20499;-70
2022/04/11 09:12:17;;;;;;;5.05;1.58;;;;;;;-144.47;42.92;53452.00;5023083;28;20636;-72
2022/04/11 09:14:43;;;;;;;6.03;1.38;;;;;;;-144.47;43.11;53428.16;5042920;28;20025;-71
2022/04/11 09:17:09;;;;;;;6.22;2.00;;;;;;;-144.47;42.60;53428.16;5045553;28;20061;-70
2022/04/11 09:19:35;;;;;;;15.25;4.40;;;;;;;-144.47;42.72;53448.00;5049114;28;20063;-69
2022/04/11 09:22:00;;;;;;;12.20;3.08;;;;;;;-144.47;43.07;53452.00;5051861;28;20033;-72
2022/04/11 09:24:26;;;;;;;10.80;2.60;;;;;;;-144.47;41.97;53440.06;5048750;28;20063;-70
2022/04/11 09:26:56;;;;;;;16.20;3.00;;;;;;;-144.47;41.58;53406.31;5048627;28;20056;-70
2022/04/11 09:29:26;;;;;;;19.30;2.65;;;;;;;-144.47;41.20;53424.19;5048661;28;20036;-68
2022/04/11 09:31:52;;;;;;;6.05;1.65;;;;;;;-144.47;39.29;53434.09;5049835;28;20545;-70
2022/04/11 09:34:18;;;;;;;5.88;1.40;;;;;;;-144.47;38.57;53444.03;5026648;28;20033;-70
2022/04/11 09:36:44;;;;;;;7.57;1.80;;;;;;;-144.47;37.97;53440.06;5051478;28;20033;-70
2022/04/11 09:39:10;;;;;;;7.50;2.05;;;;;;;-144.47;39.12;53410.28;5026264;28;20037;-71
2022/04/11 09:41:41;;;;;;;13.15;1.90;;;;;;;-144.47;36.41;53418.22;5050108;28;20406;-71
2022/04/11 09:44:21;;;;;;;5.25;1.30;;;;;;;-144.47;36.99;53396.38;5042113;28;20040;-70
2022/04/11 09:46:47;;;;;;;17.00;2.55;;;;;;;-144.47;36.55;53438.09;5036813;28;20033;-71
2022/04/11 09:49:12;;;;;;;13.82;2.33;;;;;;;-144.47;36.75;53430.13;5048087;28;20029;-73
2022/04/11 09:52:04;;;;;;;14.27;1.83;;;;;;;-144.47;36.04;53416.22;5050451;28;20037;-69
2022/04/11 09:54:30;;;;;;;15.60;2.17;;;;;;;-144.47;36.24;53398.34;5029890;28;20068;-72
2022/04/11 09:56:59;;;;;;;7.82;1.98;;;;;;;-144.47;35.85;53340.75;5050565;28;20124;-70
2022/04/11 09:59:25;;;;;;;13.10;2.10;;;;;;;-144.47;36.63;53356.63;5044995;28;20033;-69
2022/04/11 10:01:53;;;;;;;6.40;1.35;;;;;;;-144.47;36.37;53404.31;5030370;28;20044;-71
2022/04/11 10:04:18;;;;;;;7.03;1.63;;;;;;;-144.47;36.21;53384.44;5027290;28;20082;-69
2022/04/11 10:06:44;;;;;;;5.22;1.60;;;;;;;-144.47;35.94;53390.41;5048002;28;20502;-70
2022/04/11 10:09:14;;;;;;;10.82;1.67;;;;;;;-144.47;35.47;53424.19;5042538;28;20037;-75
2022/04/11 10:11:44;;;;;;;13.85;4.72;;;;;;;-144.47;35.41;53380.47;5038101;28;20427;-69
2022/04/11 10:14:10;;;;;;;9.20;2.22;;;;;;;-144.47;35.73;53372.53;5030813;28;20506;-73
2022/04/11 10:16:42;;;;;;;24.42;2.30;;;;;;;-144.47;35.73;53406.31;5045549;28;20033;-70
2022/04/11 10:19:11;;;;;;;5.18;1.52;;;;;;;-144.47;35.52;53396.38;5045726;28;20040;-70
2022/04/11 10:21:41;;;;;;;8.57;1.52;;;;;;;-144.47;35.98;53414.25;5045722;28;20641;-69
2022/04/11 10:24:14;;;;;;;3.78;1.58;;;;;;;-144.47;36.68;53380.47;5041357;28;20108;-71
2022/04/11 10:26:47;;;;;;;13.27;1.67;;;;;;;-144.47;34.52;53360.63;5037779;28;20040;-73
2022/04/11 10:29:36;;;;;;;7.30;1.30;;;;;;;-144.47;34.58;53380.47;5041457;28;20025;-69
2022/04/11 10:32:11;;;;;;;4.93;1.60;;;;;;;-144.47;34.95;53398.34;5039088;28;20051;-71
2022/04/11 10:34:48;;;;;;;4.50;1.40;;;;;;;-144.47;34.45;53414.25;5037093;28;20075;-68
2022/04/11 10:37:16;;;;;;;4.57;1.50;;;;;;;-144.47;34.32;53360.63;5046446;28;20024;-70
2022/04/11 10:39:44;;;;;;;14.02;1.63;;;;;;;-144.47;34.46;53370.53;5039814;28;20037;-72
2022/04/11 10:42:14;;;;;;;5.07;1.60;;;;;;;-144.47;34.28;53384.44;5039822;28;20540;-71
2022/04/11 10:44:42;;;;;;;11.35;2.08;;;;;;;-144.47;34.19;53354.66;5047327;28;20029;-70
2022/04/11 10:47:08;;;;;;;6.53;1.33;;;;;;;-144.47;34.68;53376.50;5043493;28;20040;-70
2022/04/11 10:49:53;;;;;;;4.43;1.30;;;;;;;-144.47;34.54;53392.41;5042471;28;20029;-71
2022/04/11 10:52:34;;;;;;;7.65;2.22;;;;;;;-144.47;34.62;53364.59;5034246;28;20045;-69
2022/04/11 10:55:15;;;;;;;6.47;1.70;;;;;;;-144.47;34.21;53360.63;5041025;28;20152;-74
2022/04/11 10:57:59;;;;;;;6.63;2.25;;;;;;;-144.47;34.45;53408.28;5044055;28;20029;-71
2022/04/11 11:00:32;;;;;;;3.85;1.33;;;;;;;-144.47;33.87;53348.69;5044227;28;20036;-69
2022/04/11 11:03:00;;;;;;;7.55;1.33;;;;;;;-144.47;34.32;53362.59;5040265;28;20071;-73
2022/04/11 11:05:32;;;;;;;3.67;1.98;;;;;;;-144.47;33.92;53378.50;5040823;28;20029;-70
2022/04/11 11:08:10;;;;;;;4.63;1.98;;;;;;;-144.47;33.51;53366.56;5039874;28;20068;-73
2022/04/11 11:10:44;;;;;;;6.57;1.42;;;;;;;-144.47;33.41;53378.50;5046222;28;20501;-71